sensor_id;sensor_type;location;lat;lon;timestamp;P1;durP1;ratioP1;P2;durP2;ratioP2
56116;SDS011;41989;45.356;20.392;2023-06-26T00:00:27;9.27;;;5.38;;
56116;SDS011;41989;45.356;20.392;2023-06-26T00:02:54;7.50;;;4.95;;
56116;SDS011;41989;45.356;20.392;2023-06-26T00:05:20;8.05;;;5.15;;
56116;SDS011;41989;45.356;20.392;2023-06-26T00:07:46;7.50;;;4.80;;
56116;SDS011;41989;45.356;20.392;2023-06-26T00:10:12;6.43;;;3.83;;
56116;SDS011;41989;45.356;20.392;2023-06-26T00:12:39;4.90;;;4.30;;
56116;SDS011;41989;45.356;20.392;2023-06-26T00:15:05;10.05;;;4.95;;
56116;SDS011;41989;45.356;20.392;2023-06-26T00:17:33;8.60;;;4.68;;
56116;SDS011;41989;45.356;20.392;2023-06-26T00:20:02;8.13;;;4.18;;
56116;SDS011;41989;45.356;20.392;2023-06-26T00:22:30;10.10;;;4.53;;
56116;SDS011;41989;45.356;20.392;2023-06-26T00:24:56;8.88;;;4.90;;
56116;SDS011;41989;45.356;20.392;2023-06-26T00:27:22;7.72;;;4.35;;
56116;SDS011;41989;45.356;20.392;2023-06-26T00:29:48;7.97;;;5.05;;
56116;SDS011;41989;45.356;20.392;2023-06-26T00:32:14;7.30;;;4.45;;
56116;SDS011;41989;45.356;20.392;2023-06-26T00:34:40;8.07;;;5.15;;
56116;SDS011;41989;45.356;20.392;2023-06-26T00:37:06;6.80;;;4.82;;
56116;SDS011;41989;45.356;20.392;2023-06-26T00:39:33;12.40;;;4.05;;
56116;SDS011;41989;45.356;20.392;2023-06-26T00:41:59;6.82;;;4.70;;
56116;SDS011;41989;45.356;20.392;2023-06-26T00:44:25;8.52;;;4.68;;
56116;SDS011;41989;45.356;20.392;2023-06-26T00:46:51;9.73;;;4.20;;
56116;SDS011;41989;45.356;20.392;2023-06-26T00:49:17;6.72;;;4.70;;
56116;SDS011;41989;45.356;20.392;2023-06-26T00:51:43;6.15;;;5.25;;
56116;SDS011;41989;45.356;20.392;2023-06-26T00:54:09;8.27;;;4.72;;
56116;SDS011;41989;45.356;20.392;2023-06-26T00:56:44;6.72;;;4.40;;
56116;SDS011;41989;45.356;20.392;2023-06-26T00:59:11;5.60;;;4.50;;
56116;SDS011;41989;45.356;20.392;2023-06-26T01:01:37;7.18;;;4.68;;
56116;SDS011;41989;45.356;20.392;2023-06-26T01:04:03;12.88;;;4.65;;
56116;SDS011;41989;45.356;20.392;2023-06-26T01:06:32;7.38;;;4.50;;
56116;SDS011;41989;45.356;20.392;2023-06-26T01:09:02;9.18;;;5.57;;
56116;SDS011;41989;45.356;20.392;2023-06-26T01:11:28;8.45;;;5.70;;
56116;SDS011;41989;45.356;20.392;2023-06-26T01:13:57;9.03;;;5.70;;
56116;SDS011;41989;45.356;20.392;2023-06-26T01:16:25;8.98;;;5.97;;
56116;SDS011;41989;45.356;20.392;2023-06-26T01:18:54;9.93;;;5.78;;
56116;SDS011;41989;45.356;20.392;2023-06-26T01:21:20;11.55;;;5.20;;
56116;SDS011;41989;45.356;20.392;2023-06-26T01:26:16;11.80;;;5.80;;
56116;SDS011;41989;45.356;20.392;2023-06-26T01:28:43;11.57;;;6.10;;
56116;SDS011;41989;45.356;20.392;2023-06-26T01:31:10;8.27;;;5.93;;
56116;SDS011;41989;45.356;20.392;2023-06-26T01:33:37;7.20;;;5.90;;
56116;SDS011;41989;45.356;20.392;2023-06-26T01:36:03;8.90;;;5.68;;
56116;SDS011;41989;45.356;20.392;2023-06-26T01:38:30;10.15;;;7.78;;
56116;SDS011;41989;45.356;20.392;2023-06-26T01:40:59;13.13;;;7.07;;
56116;SDS011;41989;45.356;20.392;2023-06-26T01:43:36;10.10;;;7.13;;
56116;SDS011;41989;45.356;20.392;2023-06-26T01:48:34;11.55;;;6.78;;
56116;SDS011;41989;45.356;20.392;2023-06-26T01:51:04;11.18;;;7.10;;
56116;SDS011;41989;45.356;20.392;2023-06-26T01:53:32;11.75;;;7.40;;
56116;SDS011;41989;45.356;20.392;2023-06-26T01:56:05;10.75;;;6.72;;
56116;SDS011;41989;45.356;20.392;2023-06-26T01:58:32;11.57;;;8.10;;
56116;SDS011;41989;45.356;20.392;2023-06-26T02:00:59;12.02;;;7.80;;
56116;SDS011;41989;45.356;20.392;2023-06-26T02:03:25;14.82;;;7.80;;
56116;SDS011;41989;45.356;20.392;2023-06-26T02:05:51;12.43;;;7.85;;
56116;SDS011;41989;45.356;20.392;2023-06-26T02:08:18;10.73;;;8.25;;
56116;SDS011;41989;45.356;20.392;2023-06-26T02:10:44;11.05;;;7.43;;
56116;SDS011;41989;45.356;20.392;2023-06-26T02:13:10;10.60;;;7.05;;
56116;SDS011;41989;45.356;20.392;2023-06-26T02:15:36;10.40;;;7.65;;
56116;SDS011;41989;45.356;20.392;2023-06-26T02:18:02;10.65;;;8.35;;
56116;SDS011;41989;45.356;20.392;2023-06-26T02:20:28;10.85;;;7.80;;
56116;SDS011;41989;45.356;20.392;2023-06-26T02:22:54;17.58;;;10.02;;
56116;SDS011;41989;45.356;20.392;2023-06-26T02:25:20;13.23;;;7.65;;
56116;SDS011;41989;45.356;20.392;2023-06-26T02:27:46;11.65;;;7.60;;
56116;SDS011;41989;45.356;20.392;2023-06-26T02:30:12;8.82;;;7.50;;
56116;SDS011;41989;45.356;20.392;2023-06-26T02:32:38;12.40;;;7.95;;
56116;SDS011;41989;45.356;20.392;2023-06-26T02:35:05;16.38;;;7.95;;
56116;SDS011;41989;45.356;20.392;2023-06-26T02:37:31;10.60;;;7.25;;
56116;SDS011;41989;45.356;20.392;2023-06-26T02:39:57;13.30;;;7.68;;
56116;SDS011;41989;45.356;20.392;2023-06-26T02:42:23;9.18;;;8.07;;
56116;SDS011;41989;45.356;20.392;2023-06-26T02:44:49;11.13;;;8.30;;
56116;SDS011;41989;45.356;20.392;2023-06-26T02:47:15;13.93;;;8.48;;
56116;SDS011;41989;45.356;20.392;2023-06-26T02:49:41;14.52;;;8.50;;
56116;SDS011;41989;45.356;20.392;2023-06-26T02:52:07;14.40;;;8.98;;
56116;SDS011;41989;45.356;20.392;2023-06-26T02:54:33;10.85;;;7.68;;
56116;SDS011;41989;45.356;20.392;2023-06-26T02:57:00;14.60;;;8.40;;
56116;SDS011;41989;45.356;20.392;2023-06-26T02:59:26;11.00;;;7.93;;
56116;SDS011;41989;45.356;20.392;2023-06-26T03:01:55;14.07;;;9.18;;
56116;SDS011;41989;45.356;20.392;2023-06-26T03:04:21;11.93;;;8.27;;
56116;SDS011;41989;45.356;20.392;2023-06-26T03:06:47;10.38;;;8.07;;
56116;SDS011;41989;45.356;20.392;2023-06-26T03:09:13;11.40;;;8.73;;
56116;SDS011;41989;45.356;20.392;2023-06-26T03:11:46;13.68;;;8.05;;
56116;SDS011;41989;45.356;20.392;2023-06-26T03:14:12;10.95;;;7.97;;
56116;SDS011;41989;45.356;20.392;2023-06-26T03:16:38;9.80;;;7.60;;
56116;SDS011;41989;45.356;20.392;2023-06-26T03:19:04;12.45;;;8.73;;
56116;SDS011;41989;45.356;20.392;2023-06-26T03:21:30;14.43;;;8.43;;
56116;SDS011;41989;45.356;20.392;2023-06-26T03:23:56;10.85;;;8.00;;
56116;SDS011;41989;45.356;20.392;2023-06-26T03:26:22;14.32;;;8.85;;
56116;SDS011;41989;45.356;20.392;2023-06-26T03:28:52;14.73;;;8.02;;
56116;SDS011;41989;45.356;20.392;2023-06-26T03:31:19;13.68;;;10.23;;
56116;SDS011;41989;45.356;20.392;2023-06-26T03:33:45;12.18;;;9.52;;
56116;SDS011;41989;45.356;20.392;2023-06-26T03:36:11;14.30;;;10.57;;
56116;SDS011;41989;45.356;20.392;2023-06-26T03:38:37;13.38;;;9.38;;
56116;SDS011;41989;45.356;20.392;2023-06-26T03:41:03;11.48;;;8.55;;
56116;SDS011;41989;45.356;20.392;2023-06-26T03:43:30;10.75;;;9.23;;
56116;SDS011;41989;45.356;20.392;2023-06-26T03:45:56;15.57;;;9.18;;
56116;SDS011;41989;45.356;20.392;2023-06-26T03:48:22;12.45;;;9.00;;
56116;SDS011;41989;45.356;20.392;2023-06-26T03:50:48;12.80;;;9.18;;
56116;SDS011;41989;45.356;20.392;2023-06-26T03:53:14;16.35;;;9.50;;
56116;SDS011;41989;45.356;20.392;2023-06-26T03:55:40;16.55;;;10.60;;
56116;SDS011;41989;45.356;20.392;2023-06-26T03:58:06;11.30;;;9.68;;
56116;SDS011;41989;45.356;20.392;2023-06-26T04:00:32;18.23;;;9.23;;
56116;SDS011;41989;45.356;20.392;2023-06-26T04:02:58;13.43;;;9.43;;
56116;SDS011;41989;45.356;20.392;2023-06-26T04:05:24;15.95;;;9.38;;
56116;SDS011;41989;45.356;20.392;2023-06-26T04:07:51;12.50;;;8.35;;
56116;SDS011;41989;45.356;20.392;2023-06-26T04:10:17;14.23;;;9.88;;
56116;SDS011;41989;45.356;20.392;2023-06-26T04:12:43;19.55;;;10.82;;
56116;SDS011;41989;45.356;20.392;2023-06-26T04:15:09;15.40;;;9.80;;
56116;SDS011;41989;45.356;20.392;2023-06-26T04:17:36;15.10;;;10.70;;
56116;SDS011;41989;45.356;20.392;2023-06-26T04:20:02;15.57;;;10.98;;
56116;SDS011;41989;45.356;20.392;2023-06-26T04:22:31;13.30;;;10.00;;
56116;SDS011;41989;45.356;20.392;2023-06-26T04:24:57;12.50;;;10.77;;
56116;SDS011;41989;45.356;20.392;2023-06-26T04:27:26;12.73;;;10.38;;
56116;SDS011;41989;45.356;20.392;2023-06-26T04:29:52;12.63;;;10.35;;
56116;SDS011;41989;45.356;20.392;2023-06-26T04:32:18;17.30;;;11.60;;
56116;SDS011;41989;45.356;20.392;2023-06-26T04:34:44;17.35;;;11.55;;
56116;SDS011;41989;45.356;20.392;2023-06-26T04:37:13;16.90;;;12.40;;
56116;SDS011;41989;45.356;20.392;2023-06-26T04:39:42;13.15;;;10.45;;
56116;SDS011;41989;45.356;20.392;2023-06-26T04:42:08;12.23;;;10.73;;
56116;SDS011;41989;45.356;20.392;2023-06-26T04:44:37;15.55;;;12.57;;
56116;SDS011;41989;45.356;20.392;2023-06-26T04:47:03;14.32;;;12.32;;
56116;SDS011;41989;45.356;20.392;2023-06-26T04:49:32;13.93;;;11.93;;
56116;SDS011;41989;45.356;20.392;2023-06-26T04:51:58;19.80;;;12.88;;
56116;SDS011;41989;45.356;20.392;2023-06-26T04:54:27;16.42;;;11.52;;
56116;SDS011;41989;45.356;20.392;2023-06-26T04:56:54;16.13;;;12.40;;
56116;SDS011;41989;45.356;20.392;2023-06-26T04:59:20;15.73;;;12.93;;
56116;SDS011;41989;45.356;20.392;2023-06-26T05:01:46;14.73;;;11.77;;
56116;SDS011;41989;45.356;20.392;2023-06-26T05:04:13;15.73;;;12.10;;
56116;SDS011;41989;45.356;20.392;2023-06-26T05:06:40;14.57;;;12.73;;
56116;SDS011;41989;45.356;20.392;2023-06-26T05:09:06;15.32;;;11.32;;
56116;SDS011;41989;45.356;20.392;2023-06-26T05:11:32;14.25;;;12.05;;
56116;SDS011;41989;45.356;20.392;2023-06-26T05:13:58;15.38;;;12.55;;
56116;SDS011;41989;45.356;20.392;2023-06-26T05:16:25;13.18;;;11.77;;
56116;SDS011;41989;45.356;20.392;2023-06-26T05:18:51;14.20;;;11.57;;
56116;SDS011;41989;45.356;20.392;2023-06-26T05:21:19;11.85;;;10.20;;
56116;SDS011;41989;45.356;20.392;2023-06-26T05:23:46;12.80;;;10.93;;
56116;SDS011;41989;45.356;20.392;2023-06-26T05:26:12;14.13;;;10.82;;
56116;SDS011;41989;45.356;20.392;2023-06-26T05:28:38;13.43;;;10.35;;
56116;SDS011;41989;45.356;20.392;2023-06-26T05:31:05;11.48;;;9.63;;
56116;SDS011;41989;45.356;20.392;2023-06-26T05:33:31;10.82;;;9.63;;
56116;SDS011;41989;45.356;20.392;2023-06-26T05:36:03;10.95;;;9.80;;
56116;SDS011;41989;45.356;20.392;2023-06-26T05:38:29;12.38;;;9.50;;
56116;SDS011;41989;45.356;20.392;2023-06-26T05:40:56;13.20;;;10.32;;
56116;SDS011;41989;45.356;20.392;2023-06-26T05:43:22;13.50;;;8.82;;
56116;SDS011;41989;45.356;20.392;2023-06-26T05:45:48;16.45;;;10.32;;
56116;SDS011;41989;45.356;20.392;2023-06-26T05:48:14;15.23;;;9.68;;
56116;SDS011;41989;45.356;20.392;2023-06-26T05:50:41;22.25;;;10.80;;
56116;SDS011;41989;45.356;20.392;2023-06-26T05:53:08;13.65;;;9.82;;
56116;SDS011;41989;45.356;20.392;2023-06-26T05:55:37;17.02;;;10.48;;
56116;SDS011;41989;45.356;20.392;2023-06-26T05:58:04;17.40;;;9.73;;
56116;SDS011;41989;45.356;20.392;2023-06-26T06:00:33;14.20;;;9.05;;
56116;SDS011;41989;45.356;20.392;2023-06-26T06:02:59;23.92;;;8.07;;
56116;SDS011;41989;45.356;20.392;2023-06-26T06:05:25;11.32;;;8.18;;
56116;SDS011;41989;45.356;20.392;2023-06-26T06:07:51;14.52;;;10.20;;
56116;SDS011;41989;45.356;20.392;2023-06-26T06:10:18;16.70;;;8.85;;
56116;SDS011;41989;45.356;20.392;2023-06-26T06:12:44;11.75;;;7.35;;
56116;SDS011;41989;45.356;20.392;2023-06-26T06:15:10;11.73;;;7.55;;
56116;SDS011;41989;45.356;20.392;2023-06-26T06:17:36;11.68;;;7.65;;
56116;SDS011;41989;45.356;20.392;2023-06-26T06:20:02;12.10;;;7.07;;
56116;SDS011;41989;45.356;20.392;2023-06-26T06:22:29;13.48;;;7.68;;
56116;SDS011;41989;45.356;20.392;2023-06-26T06:24:55;18.33;;;7.65;;
56116;SDS011;41989;45.356;20.392;2023-06-26T06:27:21;10.85;;;7.40;;
56116;SDS011;41989;45.356;20.392;2023-06-26T06:29:48;20.85;;;8.10;;
56116;SDS011;41989;45.356;20.392;2023-06-26T06:32:14;9.75;;;7.35;;
56116;SDS011;41989;45.356;20.392;2023-06-26T06:34:43;12.60;;;7.68;;
56116;SDS011;41989;45.356;20.392;2023-06-26T06:37:09;11.40;;;6.43;;
56116;SDS011;41989;45.356;20.392;2023-06-26T06:39:35;9.27;;;6.10;;
56116;SDS011;41989;45.356;20.392;2023-06-26T06:42:04;6.65;;;5.47;;
56116;SDS011;41989;45.356;20.392;2023-06-26T06:44:30;9.23;;;6.87;;
56116;SDS011;41989;45.356;20.392;2023-06-26T06:46:56;24.67;;;13.88;;
56116;SDS011;41989;45.356;20.392;2023-06-26T06:49:22;13.32;;;7.07;;
56116;SDS011;41989;45.356;20.392;2023-06-26T06:51:48;12.82;;;5.43;;
56116;SDS011;41989;45.356;20.392;2023-06-26T06:54:15;8.50;;;6.35;;
56116;SDS011;41989;45.356;20.392;2023-06-26T06:56:42;9.57;;;5.90;;
56116;SDS011;41989;45.356;20.392;2023-06-26T06:59:11;6.95;;;5.65;;
56116;SDS011;41989;45.356;20.392;2023-06-26T07:01:38;6.82;;;5.20;;
56116;SDS011;41989;45.356;20.392;2023-06-26T07:04:04;23.65;;;7.15;;
56116;SDS011;41989;45.356;20.392;2023-06-26T07:06:30;6.93;;;5.32;;
56116;SDS011;41989;45.356;20.392;2023-06-26T07:08:57;9.40;;;5.53;;
56116;SDS011;41989;45.356;20.392;2023-06-26T07:11:26;6.43;;;5.27;;
56116;SDS011;41989;45.356;20.392;2023-06-26T07:13:52;7.72;;;4.95;;
56116;SDS011;41989;45.356;20.392;2023-06-26T07:16:20;6.80;;;5.45;;
56116;SDS011;41989;45.356;20.392;2023-06-26T07:18:46;10.20;;;5.45;;
56116;SDS011;41989;45.356;20.392;2023-06-26T07:21:14;7.03;;;4.47;;
56116;SDS011;41989;45.356;20.392;2023-06-26T07:23:40;8.77;;;5.40;;
56116;SDS011;41989;45.356;20.392;2023-06-26T07:26:06;9.00;;;5.22;;
56116;SDS011;41989;45.356;20.392;2023-06-26T07:28:32;5.75;;;4.97;;
56116;SDS011;41989;45.356;20.392;2023-06-26T07:30:58;8.07;;;5.07;;
56116;SDS011;41989;45.356;20.392;2023-06-26T07:33:24;14.77;;;8.75;;
56116;SDS011;41989;45.356;20.392;2023-06-26T07:35:50;7.40;;;5.40;;
56116;SDS011;41989;45.356;20.392;2023-06-26T07:38:19;9.40;;;5.15;;
56116;SDS011;41989;45.356;20.392;2023-06-26T07:40:45;9.75;;;5.20;;
56116;SDS011;41989;45.356;20.392;2023-06-26T07:43:11;6.22;;;5.05;;
56116;SDS011;41989;45.356;20.392;2023-06-26T07:45:37;12.15;;;6.50;;
56116;SDS011;41989;45.356;20.392;2023-06-26T07:48:03;13.45;;;6.88;;
56116;SDS011;41989;45.356;20.392;2023-06-26T07:50:29;10.48;;;6.60;;
56116;SDS011;41989;45.356;20.392;2023-06-26T07:52:55;10.38;;;7.85;;
56116;SDS011;41989;45.356;20.392;2023-06-26T07:55:22;7.38;;;4.80;;
56116;SDS011;41989;45.356;20.392;2023-06-26T07:57:51;5.55;;;4.40;;
56116;SDS011;41989;45.356;20.392;2023-06-26T08:00:18;7.00;;;4.60;;
56116;SDS011;41989;45.356;20.392;2023-06-26T08:02:44;5.18;;;4.38;;
56116;SDS011;41989;45.356;20.392;2023-06-26T08:05:10;5.18;;;4.22;;
56116;SDS011;41989;45.356;20.392;2023-06-26T08:07:37;6.80;;;4.38;;
56116;SDS011;41989;45.356;20.392;2023-06-26T08:10:03;9.18;;;5.45;;
56116;SDS011;41989;45.356;20.392;2023-06-26T08:12:29;6.43;;;4.45;;
56116;SDS011;41989;45.356;20.392;2023-06-26T08:14:57;6.93;;;4.40;;
56116;SDS011;41989;45.356;20.392;2023-06-26T08:17:24;5.50;;;3.92;;
56116;SDS011;41989;45.356;20.392;2023-06-26T08:19:50;5.97;;;3.90;;
56116;SDS011;41989;45.356;20.392;2023-06-26T08:22:16;4.57;;;3.95;;
56116;SDS011;41989;45.356;20.392;2023-06-26T08:24:42;7.32;;;4.25;;
56116;SDS011;41989;45.356;20.392;2023-06-26T08:27:10;4.50;;;3.58;;
56116;SDS011;41989;45.356;20.392;2023-06-26T08:29:39;5.53;;;3.83;;
56116;SDS011;41989;45.356;20.392;2023-06-26T08:32:08;6.60;;;4.07;;
56116;SDS011;41989;45.356;20.392;2023-06-26T08:34:34;5.90;;;3.95;;
56116;SDS011;41989;45.356;20.392;2023-06-26T08:37:00;4.25;;;3.60;;
56116;SDS011;41989;45.356;20.392;2023-06-26T08:39:26;4.55;;;3.33;;
56116;SDS011;41989;45.356;20.392;2023-06-26T08:41:53;6.60;;;4.35;;
56116;SDS011;41989;45.356;20.392;2023-06-26T08:44:19;6.70;;;4.20;;
56116;SDS011;41989;45.356;20.392;2023-06-26T08:46:49;4.40;;;3.65;;
56116;SDS011;41989;45.356;20.392;2023-06-26T08:49:28;6.38;;;4.00;;
56116;SDS011;41989;45.356;20.392;2023-06-26T08:51:57;5.40;;;4.22;;
56116;SDS011;41989;45.356;20.392;2023-06-26T08:54:27;4.70;;;3.80;;
56116;SDS011;41989;45.356;20.392;2023-06-26T08:56:53;4.43;;;3.65;;
56116;SDS011;41989;45.356;20.392;2023-06-26T08:59:20;5.28;;;4.10;;
56116;SDS011;41989;45.356;20.392;2023-06-26T09:01:50;4.63;;;3.85;;
56116;SDS011;41989;45.356;20.392;2023-06-26T09:04:16;5.18;;;3.83;;
56116;SDS011;41989;45.356;20.392;2023-06-26T09:06:42;19.08;;;11.35;;
56116;SDS011;41989;45.356;20.392;2023-06-26T09:09:09;9.20;;;5.35;;
56116;SDS011;41989;45.356;20.392;2023-06-26T09:11:35;8.82;;;7.13;;
56116;SDS011;41989;45.356;20.392;2023-06-26T09:14:01;6.78;;;4.45;;
56116;SDS011;41989;45.356;20.392;2023-06-26T09:16:33;6.03;;;4.10;;
56116;SDS011;41989;45.356;20.392;2023-06-26T09:19:08;5.68;;;3.38;;
56116;SDS011;41989;45.356;20.392;2023-06-26T09:24:00;5.05;;;3.95;;
56116;SDS011;41989;45.356;20.392;2023-06-26T09:26:26;6.80;;;4.60;;
56116;SDS011;41989;45.356;20.392;2023-06-26T09:28:52;21.65;;;14.50;;
56116;SDS011;41989;45.356;20.392;2023-06-26T09:31:20;8.10;;;4.97;;
56116;SDS011;41989;45.356;20.392;2023-06-26T09:33:46;7.70;;;4.03;;
56116;SDS011;41989;45.356;20.392;2023-06-26T09:36:20;12.88;;;8.10;;
56116;SDS011;41989;45.356;20.392;2023-06-26T09:38:47;5.75;;;4.00;;
56116;SDS011;41989;45.356;20.392;2023-06-26T09:41:17;4.50;;;3.92;;
56116;SDS011;41989;45.356;20.392;2023-06-26T09:43:49;6.15;;;4.20;;
56116;SDS011;41989;45.356;20.392;2023-06-26T09:46:26;5.25;;;4.00;;
56116;SDS011;41989;45.356;20.392;2023-06-26T09:49:03;4.90;;;3.95;;
56116;SDS011;41989;45.356;20.392;2023-06-26T09:51:33;4.72;;;4.00;;
56116;SDS011;41989;45.356;20.392;2023-06-26T09:54:00;5.50;;;3.10;;
56116;SDS011;41989;45.356;20.392;2023-06-26T09:56:26;5.85;;;3.88;;
56116;SDS011;41989;45.356;20.392;2023-06-26T09:58:56;5.75;;;3.40;;
56116;SDS011;41989;45.356;20.392;2023-06-26T10:01:23;5.82;;;4.00;;
56116;SDS011;41989;45.356;20.392;2023-06-26T10:03:49;5.25;;;3.53;;
56116;SDS011;41989;45.356;20.392;2023-06-26T10:06:18;6.35;;;3.72;;
56116;SDS011;41989;45.356;20.392;2023-06-26T10:08:45;5.55;;;3.50;;
56116;SDS011;41989;45.356;20.392;2023-06-26T10:11:12;4.07;;;3.10;;
56116;SDS011;41989;45.356;20.392;2023-06-26T10:13:39;4.88;;;3.40;;
56116;SDS011;41989;45.356;20.392;2023-06-26T10:16:11;3.70;;;3.05;;
56116;SDS011;41989;45.356;20.392;2023-06-26T10:18:38;5.53;;;3.47;;
56116;SDS011;41989;45.356;20.392;2023-06-26T10:21:05;5.68;;;3.58;;
56116;SDS011;41989;45.356;20.392;2023-06-26T10:23:32;4.38;;;3.30;;
56116;SDS011;41989;45.356;20.392;2023-06-26T10:25:58;5.18;;;3.35;;
56116;SDS011;41989;45.356;20.392;2023-06-26T10:28:26;3.90;;;3.28;;
56116;SDS011;41989;45.356;20.392;2023-06-26T10:30:53;5.28;;;3.58;;
56116;SDS011;41989;45.356;20.392;2023-06-26T10:33:20;10.10;;;6.10;;
56116;SDS011;41989;45.356;20.392;2023-06-26T10:35:47;6.28;;;4.05;;
56116;SDS011;41989;45.356;20.392;2023-06-26T10:38:14;4.25;;;3.10;;
56116;SDS011;41989;45.356;20.392;2023-06-26T10:43:07;5.80;;;3.42;;
56116;SDS011;41989;45.356;20.392;2023-06-26T10:45:34;5.72;;;3.67;;
56116;SDS011;41989;45.356;20.392;2023-06-26T10:48:00;8.38;;;4.75;;
56116;SDS011;41989;45.356;20.392;2023-06-26T10:50:30;6.38;;;3.80;;
56116;SDS011;41989;45.356;20.392;2023-06-26T10:53:10;3.80;;;3.13;;
56116;SDS011;41989;45.356;20.392;2023-06-26T10:55:37;3.90;;;3.33;;
56116;SDS011;41989;45.356;20.392;2023-06-26T10:58:03;6.60;;;3.92;;
56116;SDS011;41989;45.356;20.392;2023-06-26T11:00:29;3.88;;;3.47;;
56116;SDS011;41989;45.356;20.392;2023-06-26T11:02:55;4.97;;;4.32;;
56116;SDS011;41989;45.356;20.392;2023-06-26T11:05:28;10.13;;;8.98;;
56116;SDS011;41989;45.356;20.392;2023-06-26T11:08:07;5.80;;;4.07;;
56116;SDS011;41989;45.356;20.392;2023-06-26T11:16:06;4.03;;;3.45;;
56116;SDS011;41989;45.356;20.392;2023-06-26T11:18:32;5.18;;;3.60;;
56116;SDS011;41989;45.356;20.392;2023-06-26T11:21:08;4.88;;;3.30;;
56116;SDS011;41989;45.356;20.392;2023-06-26T11:23:36;5.70;;;3.28;;
56116;SDS011;41989;45.356;20.392;2023-06-26T11:28:56;4.13;;;2.72;;
56116;SDS011;41989;45.356;20.392;2023-06-26T11:31:29;5.03;;;3.35;;
56116;SDS011;41989;45.356;20.392;2023-06-26T11:33:56;4.32;;;3.10;;
56116;SDS011;41989;45.356;20.392;2023-06-26T11:36:23;5.20;;;3.53;;
56116;SDS011;41989;45.356;20.392;2023-06-26T11:38:55;23.13;;;13.52;;
56116;SDS011;41989;45.356;20.392;2023-06-26T11:41:23;16.98;;;10.65;;
56116;SDS011;41989;45.356;20.392;2023-06-26T11:43:49;8.30;;;5.63;;
56116;SDS011;41989;45.356;20.392;2023-06-26T11:46:17;4.80;;;3.50;;
56116;SDS011;41989;45.356;20.392;2023-06-26T11:48:43;5.97;;;3.40;;
56116;SDS011;41989;45.356;20.392;2023-06-26T11:51:12;7.70;;;3.70;;
56116;SDS011;41989;45.356;20.392;2023-06-26T11:53:39;5.80;;;3.00;;
56116;SDS011;41989;45.356;20.392;2023-06-26T11:56:09;4.60;;;3.40;;
56116;SDS011;41989;45.356;20.392;2023-06-26T11:58:36;5.28;;;3.50;;
56116;SDS011;41989;45.356;20.392;2023-06-26T12:01:02;4.45;;;2.97;;
56116;SDS011;41989;45.356;20.392;2023-06-26T12:03:29;4.93;;;3.58;;
56116;SDS011;41989;45.356;20.392;2023-06-26T12:05:55;4.13;;;3.13;;
56116;SDS011;41989;45.356;20.392;2023-06-26T12:08:22;4.28;;;3.17;;
56116;SDS011;41989;45.356;20.392;2023-06-26T12:10:48;5.55;;;3.30;;
56116;SDS011;41989;45.356;20.392;2023-06-26T12:13:14;5.75;;;3.40;;
56116;SDS011;41989;45.356;20.392;2023-06-26T12:15:40;4.55;;;3.30;;
56116;SDS011;41989;45.356;20.392;2023-06-26T12:18:09;5.30;;;3.20;;
56116;SDS011;41989;45.356;20.392;2023-06-26T12:20:39;4.35;;;3.25;;
56116;SDS011;41989;45.356;20.392;2023-06-26T12:23:11;4.93;;;3.55;;
56116;SDS011;41989;45.356;20.392;2023-06-26T12:25:37;5.28;;;3.70;;
56116;SDS011;41989;45.356;20.392;2023-06-26T12:28:03;4.53;;;3.40;;
56116;SDS011;41989;45.356;20.392;2023-06-26T12:30:40;5.20;;;4.22;;
56116;SDS011;41989;45.356;20.392;2023-06-26T12:33:12;4.68;;;3.95;;
56116;SDS011;41989;45.356;20.392;2023-06-26T12:35:38;5.78;;;3.88;;
56116;SDS011;41989;45.356;20.392;2023-06-26T12:38:06;4.40;;;3.50;;
56116;SDS011;41989;45.356;20.392;2023-06-26T12:40:35;5.88;;;3.58;;
56116;SDS011;41989;45.356;20.392;2023-06-26T12:43:11;4.82;;;3.65;;
56116;SDS011;41989;45.356;20.392;2023-06-26T12:45:38;5.35;;;3.20;;
56116;SDS011;41989;45.356;20.392;2023-06-26T12:48:47;6.53;;;3.55;;
56116;SDS011;41989;45.356;20.392;2023-06-26T12:50:55;6.30;;;3.97;;
56116;SDS011;41989;45.356;20.392;2023-06-26T12:53:21;5.35;;;3.65;;
56116;SDS011;41989;45.356;20.392;2023-06-26T12:55:47;6.60;;;3.95;;
56116;SDS011;41989;45.356;20.392;2023-06-26T12:58:13;4.13;;;3.55;;
56116;SDS011;41989;45.356;20.392;2023-06-26T13:00:39;6.88;;;3.53;;
56116;SDS011;41989;45.356;20.392;2023-06-26T13:03:06;4.53;;;3.85;;
56116;SDS011;41989;45.356;20.392;2023-06-26T13:05:35;5.20;;;3.90;;
56116;SDS011;41989;45.356;20.392;2023-06-26T13:08:01;6.72;;;4.43;;
56116;SDS011;41989;45.356;20.392;2023-06-26T13:10:28;4.50;;;3.38;;
56116;SDS011;41989;45.356;20.392;2023-06-26T13:12:54;6.75;;;3.67;;
56116;SDS011;41989;45.356;20.392;2023-06-26T13:15:20;6.32;;;4.15;;
56116;SDS011;41989;45.356;20.392;2023-06-26T13:17:47;5.82;;;3.70;;
56116;SDS011;41989;45.356;20.392;2023-06-26T13:20:13;6.28;;;3.70;;
56116;SDS011;41989;45.356;20.392;2023-06-26T13:22:39;6.25;;;4.38;;
56116;SDS011;41989;45.356;20.392;2023-06-26T13:25:05;7.32;;;3.72;;
56116;SDS011;41989;45.356;20.392;2023-06-26T13:27:34;6.03;;;4.07;;
56116;SDS011;41989;45.356;20.392;2023-06-26T13:30:00;4.70;;;3.85;;
56116;SDS011;41989;45.356;20.392;2023-06-26T13:32:27;5.72;;;4.00;;
56116;SDS011;41989;45.356;20.392;2023-06-26T13:34:53;4.78;;;4.22;;
56116;SDS011;41989;45.356;20.392;2023-06-26T13:37:19;5.55;;;4.00;;
56116;SDS011;41989;45.356;20.392;2023-06-26T13:39:45;6.65;;;3.95;;
56116;SDS011;41989;45.356;20.392;2023-06-26T13:42:15;6.47;;;4.25;;
56116;SDS011;41989;45.356;20.392;2023-06-26T13:44:41;7.75;;;5.03;;
56116;SDS011;41989;45.356;20.392;2023-06-26T13:47:07;4.45;;;4.03;;
56116;SDS011;41989;45.356;20.392;2023-06-26T13:49:33;5.05;;;4.15;;
56116;SDS011;41989;45.356;20.392;2023-06-26T13:51:59;6.47;;;4.70;;
56116;SDS011;41989;45.356;20.392;2023-06-26T13:54:26;7.57;;;4.13;;
56116;SDS011;41989;45.356;20.392;2023-06-26T13:56:52;8.07;;;4.28;;
56116;SDS011;41989;45.356;20.392;2023-06-26T13:59:22;9.35;;;4.55;;
56116;SDS011;41989;45.356;20.392;2023-06-26T14:01:50;6.60;;;4.22;;
56116;SDS011;41989;45.356;20.392;2023-06-26T14:04:17;7.63;;;4.53;;
56116;SDS011;41989;45.356;20.392;2023-06-26T14:06:46;8.43;;;4.57;;
56116;SDS011;41989;45.356;20.392;2023-06-26T14:09:12;6.07;;;4.00;;
56116;SDS011;41989;45.356;20.392;2023-06-26T14:11:38;5.50;;;3.97;;
56116;SDS011;41989;45.356;20.392;2023-06-26T14:14:04;4.50;;;3.83;;
56116;SDS011;41989;45.356;20.392;2023-06-26T14:16:30;4.35;;;3.42;;
56116;SDS011;41989;45.356;20.392;2023-06-26T14:18:57;5.50;;;4.10;;
56116;SDS011;41989;45.356;20.392;2023-06-26T14:21:27;6.25;;;3.67;;
56116;SDS011;41989;45.356;20.392;2023-06-26T14:23:55;7.07;;;4.10;;
56116;SDS011;41989;45.356;20.392;2023-06-26T14:26:21;5.20;;;4.20;;
56116;SDS011;41989;45.356;20.392;2023-06-26T14:28:47;5.72;;;3.72;;
56116;SDS011;41989;45.356;20.392;2023-06-26T14:31:13;5.18;;;4.10;;
56116;SDS011;41989;45.356;20.392;2023-06-26T14:33:39;6.45;;;4.13;;
56116;SDS011;41989;45.356;20.392;2023-06-26T14:36:05;6.20;;;4.00;;
56116;SDS011;41989;45.356;20.392;2023-06-26T14:38:31;6.00;;;3.58;;
56116;SDS011;41989;45.356;20.392;2023-06-26T14:41:04;4.82;;;3.92;;
56116;SDS011;41989;45.356;20.392;2023-06-26T14:43:30;6.03;;;4.00;;
56116;SDS011;41989;45.356;20.392;2023-06-26T14:45:56;7.85;;;4.15;;